sensor_id;sensor_type;location;lat;lon;timestamp;pressure;altitude;pressure_sealevel;temperature;humidity
60646;BME280;46462;32.608;-117.032;2023-05-16T00:01:23;99626.09;;;25.78;46.97
60646;BME280;46462;32.608;-117.032;2023-05-16T00:03:53;99619.71;;;25.78;46.91
60646;BME280;46462;32.608;-117.032;2023-05-16T00:06:24;99609.69;;;25.81;46.83
60646;BME280;46462;32.608;-117.032;2023-05-16T00:08:54;99609.25;;;25.82;46.76
60646;BME280;46462;32.608;-117.032;2023-05-16T00:11:26;99602.98;;;25.84;46.68
60646;BME280;46462;32.608;-117.032;2023-05-16T00:13:56;99599.83;;;25.85;46.63
60646;BME280;46462;32.608;-117.032;2023-05-16T00:16:26;99598.52;;;25.85;46.62
60646;BME280;46462;32.608;-117.032;2023-05-16T00:18:57;99599.03;;;25.88;46.51
60646;BME280;46462;32.608;-117.032;2023-05-16T00:21:28;99603.65;;;25.89;46.49
60646;BME280;46462;32.608;-117.032;2023-05-16T00:23:59;99604.82;;;25.89;46.46
60646;BME280;46462;32.608;-117.032;2023-05-16T00:26:29;99607.10;;;25.87;46.50
60646;BME280;46462;32.608;-117.032;2023-05-16T00:29:00;99604.91;;;25.90;46.41
60646;BME280;46462;32.608;-117.032;2023-05-16T00:31:31;99603.72;;;25.91;46.38
60646;BME280;46462;32.608;-117.032;2023-05-16T00:34:01;99601.46;;;25.89;46.40
60646;BME280;46462;32.608;-117.032;2023-05-16T00:36:32;99600.87;;;25.92;46.27
60646;BME280;46462;32.608;-117.032;2023-05-16T00:39:02;99602.99;;;25.90;46.27
60646;BME280;46462;32.608;-117.032;2023-05-16T00:41:34;99605.62;;;25.91;46.23
60646;BME280;46462;32.608;-117.032;2023-05-16T00:44:03;99608.40;;;25.90;46.22
60646;BME280;46462;32.608;-117.032;2023-05-16T00:46:35;99602.44;;;25.92;46.17
60646;BME280;46462;32.608;-117.032;2023-05-16T00:49:05;99593.79;;;25.88;46.20
60646;BME280;46462;32.608;-117.032;2023-05-16T00:51:36;99596.57;;;25.89;46.19
60646;BME280;46462;32.608;-117.032;2023-05-16T00:54:07;99599.18;;;25.88;46.20
60646;BME280;46462;32.608;-117.032;2023-05-16T00:56:37;99597.10;;;25.89;46.16
60646;BME280;46462;32.608;-117.032;2023-05-16T00:59:07;99593.54;;;25.91;46.13
60646;BME280;46462;32.608;-117.032;2023-05-16T01:01:38;99592.61;;;25.89;46.17
60646;BME280;46462;32.608;-117.032;2023-05-16T01:04:09;99596.22;;;25.92;46.08
60646;BME280;46462;32.608;-117.032;2023-05-16T01:06:39;99597.58;;;25.93;46.07
60646;BME280;46462;32.608;-117.032;2023-05-16T01:09:10;99596.55;;;25.90;46.12
60646;BME280;46462;32.608;-117.032;2023-05-16T01:11:46;99598.89;;;25.92;46.05
60646;BME280;46462;32.608;-117.032;2023-05-16T01:14:16;99600.55;;;25.93;46.03
60646;BME280;46462;32.608;-117.032;2023-05-16T01:16:45;99594.94;;;25.94;45.98
60646;BME280;46462;32.608;-117.032;2023-05-16T01:19:25;99595.54;;;25.94;46.01
60646;BME280;46462;32.608;-117.032;2023-05-16T01:21:48;99592.86;;;25.97;45.94
60646;BME280;46462;32.608;-117.032;2023-05-16T01:24:19;99591.78;;;25.98;45.90
60646;BME280;46462;32.608;-117.032;2023-05-16T01:26:44;99590.29;;;26.00;45.87
60646;BME280;46462;32.608;-117.032;2023-05-16T01:29:15;99590.58;;;25.99;45.90
60646;BME280;46462;32.608;-117.032;2023-05-16T01:31:45;99588.00;;;25.99;45.90
60646;BME280;46462;32.608;-117.032;2023-05-16T01:34:16;99582.22;;;25.94;46.04
60646;BME280;46462;32.608;-117.032;2023-05-16T01:36:51;99580.75;;;25.98;45.93
60646;BME280;46462;32.608;-117.032;2023-05-16T01:39:24;99584.94;;;25.95;45.99
60646;BME280;46462;32.608;-117.032;2023-05-16T01:41:56;99590.74;;;25.97;45.99
60646;BME280;46462;32.608;-117.032;2023-05-16T01:44:24;99596.89;;;25.99;45.95
60646;BME280;46462;32.608;-117.032;2023-05-16T01:46:53;99598.48;;;26.01;45.86
60646;BME280;46462;32.608;-117.032;2023-05-16T01:49:25;99598.07;;;26.02;45.86
60646;BME280;46462;32.608;-117.032;2023-05-16T01:51:55;99599.38;;;26.03;45.79
60646;BME280;46462;32.608;-117.032;2023-05-16T01:54:24;99601.14;;;26.04;45.77
60646;BME280;46462;32.608;-117.032;2023-05-16T01:56:53;99602.26;;;26.04;45.77
60646;BME280;46462;32.608;-117.032;2023-05-16T01:59:23;99604.67;;;26.03;45.79
60646;BME280;46462;32.608;-117.032;2023-05-16T02:01:53;99602.22;;;26.03;45.79
60646;BME280;46462;32.608;-117.032;2023-05-16T02:04:24;99606.95;;;26.02;45.84
60646;BME280;46462;32.608;-117.032;2023-05-16T02:06:54;99613.87;;;26.02;45.78
60646;BME280;46462;32.608;-117.032;2023-05-16T02:09:25;99617.75;;;25.98;45.88
60646;BME280;46462;32.608;-117.032;2023-05-16T02:11:56;99612.82;;;26.00;45.78
60646;BME280;46462;32.608;-117.032;2023-05-16T02:14:26;99606.95;;;25.97;45.81
60646;BME280;46462;32.608;-117.032;2023-05-16T02:16:57;99602.15;;;25.97;45.81
60646;BME280;46462;32.608;-117.032;2023-05-16T02:19:28;99600.41;;;25.97;45.82
60646;BME280;46462;32.608;-117.032;2023-05-16T02:21:58;99597.39;;;25.98;45.78
60646;BME280;46462;32.608;-117.032;2023-05-16T02:24:29;99598.47;;;25.96;45.82
60646;BME280;46462;32.608;-117.032;2023-05-16T02:27:00;99601.52;;;25.97;45.77
60646;BME280;46462;32.608;-117.032;2023-05-16T02:29:30;99598.62;;;25.95;45.81
60646;BME280;46462;32.608;-117.032;2023-05-16T02:32:01;99598.18;;;25.91;45.86
60646;BME280;46462;32.608;-117.032;2023-05-16T02:34:32;99600.69;;;25.92;45.86
60646;BME280;46462;32.608;-117.032;2023-05-16T02:37:03;99606.23;;;25.93;45.78
60646;BME280;46462;32.608;-117.032;2023-05-16T02:39:33;99607.62;;;25.93;45.78
60646;BME280;46462;32.608;-117.032;2023-05-16T02:42:05;99605.04;;;25.92;45.77
60646;BME280;46462;32.608;-117.032;2023-05-16T02:44:35;99607.35;;;25.93;45.76
60646;BME280;46462;32.608;-117.032;2023-05-16T02:47:05;99604.03;;;25.93;45.71
60646;BME280;46462;32.608;-117.032;2023-05-16T02:49:36;99603.42;;;25.89;45.78
60646;BME280;46462;32.608;-117.032;2023-05-16T02:52:07;99602.67;;;25.91;45.71
60646;BME280;46462;32.608;-117.032;2023-05-16T02:54:37;99602.72;;;25.89;45.77
60646;BME280;46462;32.608;-117.032;2023-05-16T02:57:08;99609.72;;;25.88;45.77
60646;BME280;46462;32.608;-117.032;2023-05-16T02:59:39;99620.96;;;25.86;45.79
60646;BME280;46462;32.608;-117.032;2023-05-16T03:02:09;99624.32;;;25.87;45.78
60646;BME280;46462;32.608;-117.032;2023-05-16T03:04:41;99621.64;;;25.82;45.86
60646;BME280;46462;32.608;-117.032;2023-05-16T03:07:11;99626.99;;;25.81;45.86
60646;BME280;46462;32.608;-117.032;2023-05-16T03:09:42;99632.71;;;25.78;45.94
60646;BME280;46462;32.608;-117.032;2023-05-16T03:12:12;99633.35;;;25.79;45.93
60646;BME280;46462;32.608;-117.032;2023-05-16T03:14:43;99631.88;;;25.80;45.92
60646;BME280;46462;32.608;-117.032;2023-05-16T03:17:14;99633.16;;;25.79;45.98
60646;BME280;46462;32.608;-117.032;2023-05-16T03:19:44;99637.28;;;25.84;45.82
60646;BME280;46462;32.608;-117.032;2023-05-16T03:22:15;99641.89;;;25.88;45.74
60646;BME280;46462;32.608;-117.032;2023-05-16T03:24:45;99644.67;;;25.85;45.76
60646;BME280;46462;32.608;-117.032;2023-05-16T03:27:16;99651.89;;;25.85;45.76
60646;BME280;46462;32.608;-117.032;2023-05-16T03:29:47;99656.15;;;25.84;45.80
60646;BME280;46462;32.608;-117.032;2023-05-16T03:32:17;99656.31;;;25.82;45.78
60646;BME280;46462;32.608;-117.032;2023-05-16T03:34:48;99654.51;;;25.82;45.80
60646;BME280;46462;32.608;-117.032;2023-05-16T03:37:18;99651.83;;;25.82;45.80
60646;BME280;46462;32.608;-117.032;2023-05-16T03:39:49;99653.25;;;25.80;45.82
60646;BME280;46462;32.608;-117.032;2023-05-16T03:42:20;99664.33;;;25.80;45.83
60646;BME280;46462;32.608;-117.032;2023-05-16T03:44:51;99664.75;;;25.82;45.77
60646;BME280;46462;32.608;-117.032;2023-05-16T03:47:21;99661.87;;;25.81;45.75
60646;BME280;46462;32.608;-117.032;2023-05-16T03:49:52;99660.52;;;25.74;45.91
60646;BME280;46462;32.608;-117.032;2023-05-16T03:52:22;99652.27;;;25.75;45.89
60646;BME280;46462;32.608;-117.032;2023-05-16T03:54:53;99654.70;;;25.73;45.92
60646;BME280;46462;32.608;-117.032;2023-05-16T03:57:24;99660.00;;;25.80;45.73
60646;BME280;46462;32.608;-117.032;2023-05-16T03:59:54;99665.11;;;25.77;45.77
60646;BME280;46462;32.608;-117.032;2023-05-16T04:02:25;99666.62;;;25.77;45.74
60646;BME280;46462;32.608;-117.032;2023-05-16T04:04:56;99666.35;;;25.73;45.84
60646;BME280;46462;32.608;-117.032;2023-05-16T04:07:26;99668.14;;;25.73;45.87
60646;BME280;46462;32.608;-117.032;2023-05-16T04:09:57;99670.44;;;25.72;45.82
60646;BME280;46462;32.608;-117.032;2023-05-16T04:12:28;99677.83;;;25.73;45.78
60646;BME280;46462;32.608;-117.032;2023-05-16T04:14:59;99682.40;;;25.77;45.71
60646;BME280;46462;32.608;-117.032;2023-05-16T04:17:29;99685.65;;;25.72;45.77
60646;BME280;46462;32.608;-117.032;2023-05-16T04:20:00;99685.91;;;25.72;45.78
60646;BME280;46462;32.608;-117.032;2023-05-16T04:22:31;99683.89;;;25.70;45.81
60646;BME280;46462;32.608;-117.032;2023-05-16T04:25:01;99684.38;;;25.67;45.84
60646;BME280;46462;32.608;-117.032;2023-05-16T04:27:32;99683.43;;;25.66;45.82
60646;BME280;46462;32.608;-117.032;2023-05-16T04:30:08;99677.74;;;25.64;45.86
60646;BME280;46462;32.608;-117.032;2023-05-16T04:32:38;99678.74;;;25.64;45.82
60646;BME280;46462;32.608;-117.032;2023-05-16T04:35:09;99674.05;;;25.59;45.95
60646;BME280;46462;32.608;-117.032;2023-05-16T04:37:39;99671.97;;;25.59;45.89
60646;BME280;46462;32.608;-117.032;2023-05-16T04:40:11;99674.62;;;25.58;45.86
60646;BME280;46462;32.608;-117.032;2023-05-16T04:42:41;99676.36;;;25.58;45.90
60646;BME280;46462;32.608;-117.032;2023-05-16T04:45:11;99678.60;;;25.61;45.76
60646;BME280;46462;32.608;-117.032;2023-05-16T04:47:42;99679.95;;;25.63;45.68
60646;BME280;46462;32.608;-117.032;2023-05-16T04:50:13;99678.20;;;25.60;45.73
60646;BME280;46462;32.608;-117.032;2023-05-16T04:52:44;99676.01;;;25.61;45.65
60646;BME280;46462;32.608;-117.032;2023-05-16T04:55:14;99669.06;;;25.61;45.68
60646;BME280;46462;32.608;-117.032;2023-05-16T04:57:45;99667.99;;;25.59;45.65
60646;BME280;46462;32.608;-117.032;2023-05-16T05:00:16;99671.15;;;25.54;45.78
60646;BME280;46462;32.608;-117.032;2023-05-16T05:02:46;99667.83;;;25.53;45.73
60646;BME280;46462;32.608;-117.032;2023-05-16T05:05:17;99664.35;;;25.48;45.81
60646;BME280;46462;32.608;-117.032;2023-05-16T05:07:47;99662.86;;;25.53;45.68
60646;BME280;46462;32.608;-117.032;2023-05-16T05:10:17;99660.77;;;25.47;45.80
60646;BME280;46462;32.608;-117.032;2023-05-16T05:12:48;99657.49;;;25.45;45.81
60646;BME280;46462;32.608;-117.032;2023-05-16T05:15:18;99654.65;;;25.42;45.85
60646;BME280;46462;32.608;-117.032;2023-05-16T05:17:49;99657.43;;;25.46;45.75
60646;BME280;46462;32.608;-117.032;2023-05-16T05:20:20;99661.99;;;25.45;45.74
60646;BME280;46462;32.608;-117.032;2023-05-16T05:22:50;99665.19;;;25.44;45.72
60646;BME280;46462;32.608;-117.032;2023-05-16T05:25:21;99661.48;;;25.50;45.56
60646;BME280;46462;32.608;-117.032;2023-05-16T05:27:52;99651.22;;;25.47;45.56
60646;BME280;46462;32.608;-117.032;2023-05-16T05:30:23;99649.86;;;25.53;45.42
60646;BME280;46462;32.608;-117.032;2023-05-16T05:32:54;99645.47;;;25.45;45.54
60646;BME280;46462;32.608;-117.032;2023-05-16T05:35:24;99639.75;;;25.44;45.51
60646;BME280;46462;32.608;-117.032;2023-05-16T05:37:55;99643.35;;;25.43;45.50
60646;BME280;46462;32.608;-117.032;2023-05-16T05:40:25;99647.12;;;25.42;45.48
60646;BME280;46462;32.608;-117.032;2023-05-16T05:42:56;99640.03;;;25.37;45.56
60646;BME280;46462;32.608;-117.032;2023-05-16T05:45:27;99637.17;;;25.42;45.45
60646;BME280;46462;32.608;-117.032;2023-05-16T05:47:58;99641.79;;;25.40;45.39
60646;BME280;46462;32.608;-117.032;2023-05-16T05:50:28;99642.16;;;25.37;45.43
60646;BME280;46462;32.608;-117.032;2023-05-16T05:52:59;99635.00;;;25.38;45.35
60646;BME280;46462;32.608;-117.032;2023-05-16T05:55:30;99633.12;;;25.35;45.39
60646;BME280;46462;32.608;-117.032;2023-05-16T05:58:00;99630.47;;;25.33;45.41
60646;BME280;46462;32.608;-117.032;2023-05-16T06:00:31;99623.84;;;25.42;45.16
60646;BME280;46462;32.608;-117.032;2023-05-16T06:03:01;99623.16;;;25.34;45.25
60646;BME280;46462;32.608;-117.032;2023-05-16T06:05:32;99626.13;;;25.36;45.22
60646;BME280;46462;32.608;-117.032;2023-05-16T06:08:03;99629.38;;;25.39;45.10
60646;BME280;46462;32.608;-117.032;2023-05-16T06:10:33;99623.48;;;25.31;45.24
60646;BME280;46462;32.608;-117.032;2023-05-16T06:13:04;99614.80;;;25.33;45.17
60646;BME280;46462;32.608;-117.032;2023-05-16T06:15:35;99612.85;;;25.28;45.23
60646;BME280;46462;32.608;-117.032;2023-05-16T06:18:05;99615.17;;;25.31;45.12
60646;BME280;46462;32.608;-117.032;2023-05-16T06:20:36;99616.92;;;25.33;45.05
60646;BME280;46462;32.608;-117.032;2023-05-16T06:23:07;99609.50;;;25.31;45.01
60646;BME280;46462;32.608;-117.032;2023-05-16T06:25:38;99599.09;;;25.35;44.84
60646;BME280;46462;32.608;-117.032;2023-05-16T06:28:08;99597.82;;;25.37;44.75
60646;BME280;46462;32.608;-117.032;2023-05-16T06:30:39;99597.17;;;25.35;44.70
60646;BME280;46462;32.608;-117.032;2023-05-16T06:33:10;99597.56;;;25.32;44.75
60646;BME280;46462;32.608;-117.032;2023-05-16T06:35:40;99599.19;;;25.33;44.70
60646;BME280;46462;32.608;-117.032;2023-05-16T06:38:11;99598.42;;;25.30;44.78
60646;BME280;46462;32.608;-117.032;2023-05-16T06:40:42;99598.29;;;25.36;44.48
60646;BME280;46462;32.608;-117.032;2023-05-16T06:43:13;99599.22;;;25.37;44.45
60646;BME280;46462;32.608;-117.032;2023-05-16T06:45:44;99596.47;;;25.38;44.39
60646;BME280;46462;32.608;-117.032;2023-05-16T06:48:14;99596.71;;;25.36;44.41
60646;BME280;46462;32.608;-117.032;2023-05-16T06:50:47;99595.32;;;25.41;44.22
60646;BME280;46462;32.608;-117.032;2023-05-16T06:53:15;99596.23;;;25.42;44.17
60646;BME280;46462;32.608;-117.032;2023-05-16T06:55:46;99592.81;;;25.40;44.13
60646;BME280;46462;32.608;-117.032;2023-05-16T06:58:17;99591.17;;;25.37;44.12
60646;BME280;46462;32.608;-117.032;2023-05-16T07:00:49;99582.88;;;25.35;44.12
60646;BME280;46462;32.608;-117.032;2023-05-16T07:03:18;99583.94;;;25.29;44.26
60646;BME280;46462;32.608;-117.032;2023-05-16T07:05:50;99582.58;;;25.33;44.04
60646;BME280;46462;32.608;-117.032;2023-05-16T07:08:19;99580.01;;;25.31;44.05
60646;BME280;46462;32.608;-117.032;2023-05-16T07:10:50;99580.82;;;25.30;44.06
60646;BME280;46462;32.608;-117.032;2023-05-16T07:13:21;99583.54;;;25.25;44.15
60646;BME280;46462;32.608;-117.032;2023-05-16T07:15:52;99583.30;;;25.29;43.93
60646;BME280;46462;32.608;-117.032;2023-05-16T07:18:22;99579.18;;;25.30;43.90
60646;BME280;46462;32.608;-117.032;2023-05-16T07:20:53;99571.26;;;25.27;43.95
60646;BME280;46462;32.608;-117.032;2023-05-16T07:23:24;99569.21;;;25.26;43.93
60646;BME280;46462;32.608;-117.032;2023-05-16T07:25:54;99576.26;;;25.25;43.86
60646;BME280;46462;32.608;-117.032;2023-05-16T07:28:25;99573.54;;;25.25;43.87
60646;BME280;46462;32.608;-117.032;2023-05-16T07:30:56;99560.90;;;25.25;43.70
60646;BME280;46462;32.608;-117.032;2023-05-16T07:33:26;99557.98;;;25.25;43.66
60646;BME280;46462;32.608;-117.032;2023-05-16T07:35:57;99559.37;;;25.26;43.62
60646;BME280;46462;32.608;-117.032;2023-05-16T07:38:28;99552.87;;;25.26;43.57
60646;BME280;46462;32.608;-117.032;2023-05-16T07:40:59;99550.08;;;25.27;43.40
60646;BME280;46462;32.608;-117.032;2023-05-16T07:43:29;99549.92;;;25.26;43.51
60646;BME280;46462;32.608;-117.032;2023-05-16T07:46:00;99545.40;;;25.28;43.47
60646;BME280;46462;32.608;-117.032;2023-05-16T07:48:31;99538.68;;;25.23;43.38
60646;BME280;46462;32.608;-117.032;2023-05-16T07:51:01;99537.87;;;25.23;43.38
60646;BME280;46462;32.608;-117.032;2023-05-16T07:53:32;99533.21;;;25.30;43.09
60646;BME280;46462;32.608;-117.032;2023-05-16T07:56:02;99531.28;;;25.27;43.18
60646;BME280;46462;32.608;-117.032;2023-05-16T07:58:33;99529.96;;;25.23;43.14
60646;BME280;46462;32.608;-117.032;2023-05-16T08:01:04;99527.76;;;25.20;43.22
60646;BME280;46462;32.608;-117.032;2023-05-16T08:03:35;99528.95;;;25.20;43.21
60646;BME280;46462;32.608;-117.032;2023-05-16T08:06:06;99532.14;;;25.17;43.19
60646;BME280;46462;32.608;-117.032;2023-05-16T08:08:36;99528.97;;;25.19;42.97
60646;BME280;46462;32.608;-117.032;2023-05-16T08:11:06;99522.39;;;25.19;42.99
60646;BME280;46462;32.608;-117.032;2023-05-16T08:13:37;99520.26;;;25.17;42.92
60646;BME280;46462;32.608;-117.032;2023-05-16T08:16:08;99517.71;;;25.18;42.87
60646;BME280;46462;32.608;-117.032;2023-05-16T08:18:39;99515.45;;;25.17;42.80
60646;BME280;46462;32.608;-117.032;2023-05-16T08:21:10;99515.82;;;25.17;42.83
60646;BME280;46462;32.608;-117.032;2023-05-16T08:23:40;99519.16;;;25.14;42.93
60646;BME280;46462;32.608;-117.032;2023-05-16T08:26:11;99526.07;;;25.15;42.71
60646;BME280;46462;32.608;-117.032;2023-05-16T08:28:41;99528.07;;;25.17;42.66
60646;BME280;46462;32.608;-117.032;2023-05-16T08:31:12;99533.97;;;25.11;42.84
60646;BME280;46462;32.608;-117.032;2023-05-16T08:33:43;99522.57;;;25.15;42.56
60646;BME280;46462;32.608;-117.032;2023-05-16T08:36:14;99515.30;;;25.16;42.49
60646;BME280;46462;32.608;-117.032;2023-05-16T08:38:44;99514.72;;;25.14;42.51
60646;BME280;46462;32.608;-117.032;2023-05-16T08:41:15;99512.91;;;25.14;42.46
60646;BME280;46462;32.608;-117.032;2023-05-16T08:43:46;99508.99;;;25.15;42.34
60646;BME280;46462;32.608;-117.032;2023-05-16T08:46:20;99503.80;;;25.13;42.36
60646;BME280;46462;32.608;-117.032;2023-05-16T08:48:51;99502.66;;;25.11;42.32
60646;BME280;46462;32.608;-117.032;2023-05-16T08:51:19;99502.46;;;25.15;42.21
60646;BME280;46462;32.608;-117.032;2023-05-16T08:53:56;99502.79;;;25.12;42.25
60646;BME280;46462;32.608;-117.032;2023-05-16T08:56:20;99503.15;;;25.15;42.11
60646;BME280;46462;32.608;-117.032;2023-05-16T08:58:50;99499.25;;;25.11;42.13
60646;BME280;46462;32.608;-117.032;2023-05-16T09:01:21;99501.68;;;25.11;42.09
60646;BME280;46462;32.608;-117.032;2023-05-16T09:03:51;99501.75;;;25.08;42.09
60646;BME280;46462;32.608;-117.032;2023-05-16T09:06:22;99498.93;;;25.02;42.12
60646;BME280;46462;32.608;-117.032;2023-05-16T09:08:53;99491.85;;;25.01;42.11
60646;BME280;46462;32.608;-117.032;2023-05-16T09:11:23;99489.24;;;25.00;42.16
60646;BME280;46462;32.608;-117.032;2023-05-16T09:13:54;99485.54;;;24.97;42.19
60646;BME280;46462;32.608;-117.032;2023-05-16T09:16:25;99489.52;;;24.96;42.10
60646;BME280;46462;32.608;-117.032;2023-05-16T09:18:57;99493.30;;;24.94;41.99
60646;BME280;46462;32.608;-117.032;2023-05-16T09:21:28;99491.97;;;24.95;41.99
60646;BME280;46462;32.608;-117.032;2023-05-16T09:24:02;99490.50;;;24.94;41.99
60646;BME280;46462;32.608;-117.032;2023-05-16T09:26:28;99492.87;;;24.91;42.01
60646;BME280;46462;32.608;-117.032;2023-05-16T09:28:58;99498.56;;;24.91;42.05
60646;BME280;46462;32.608;-117.032;2023-05-16T09:31:29;99505.69;;;24.93;41.95
60646;BME280;46462;32.608;-117.032;2023-05-16T09:34:00;99502.60;;;24.93;41.86
60646;BME280;46462;32.608;-117.032;2023-05-16T09:36:32;99498.38;;;24.94;41.79
60646;BME280;46462;32.608;-117.032;2023-05-16T09:39:01;99504.63;;;24.92;41.75
60646;BME280;46462;32.608;-117.032;2023-05-16T09:41:33;99501.86;;;24.89;41.82
60646;BME280;46462;32.608;-117.032;2023-05-16T09:44:04;99492.29;;;24.86;41.86
60646;BME280;46462;32.608;-117.032;2023-05-16T09:46:34;99483.48;;;24.94;41.58
60646;BME280;46462;32.608;-117.032;2023-05-16T09:49:04;99481.25;;;24.92;41.59
60646;BME280;46462;32.608;-117.032;2023-05-16T09:51:35;99471.35;;;24.89;41.74
60646;BME280;46462;32.608;-117.032;2023-05-16T09:54:07;99464.91;;;24.87;41.59
60646;BME280;46462;32.608;-117.032;2023-05-16T09:56:48;99461.25;;;24.86;41.52
60646;BME280;46462;32.608;-117.032;2023-05-16T09:59:10;99454.63;;;24.82;41.64
60646;BME280;46462;32.608;-117.032;2023-05-16T10:01:38;99451.70;;;24.81;41.70
60646;BME280;46462;32.608;-117.032;2023-05-16T10:04:08;99449.94;;;24.77;41.68
60646;BME280;46462;32.608;-117.032;2023-05-16T10:06:40;99450.22;;;24.78;41.57
60646;BME280;46462;32.608;-117.032;2023-05-16T10:09:11;99456.41;;;24.75;41.59
60646;BME280;46462;32.608;-117.032;2023-05-16T10:11:41;99452.70;;;24.76;41.66
60646;BME280;46462;32.608;-117.032;2023-05-16T10:14:11;99457.40;;;24.77;41.56
60646;BME280;46462;32.608;-117.032;2023-05-16T10:16:43;99460.87;;;24.77;41.55
60646;BME280;46462;32.608;-117.032;2023-05-16T10:19:13;99456.53;;;24.73;41.55
60646;BME280;46462;32.608;-117.032;2023-05-16T10:21:47;99455.06;;;24.74;41.71
60646;BME280;46462;32.608;-117.032;2023-05-16T10:24:18;99448.45;;;24.74;41.54
60646;BME280;46462;32.608;-117.032;2023-05-16T10:26:45;99443.79;;;24.78;41.34
60646;BME280;46462;32.608;-117.032;2023-05-16T10:29:16;99442.04;;;24.76;41.32
60646;BME280;46462;32.608;-117.032;2023-05-16T10:31:47;99445.16;;;24.83;41.14
60646;BME280;46462;32.608;-117.032;2023-05-16T10:34:17;99443.71;;;24.76;41.36
60646;BME280;46462;32.608;-117.032;2023-05-16T10:36:48;99443.66;;;24.77;41.24
60646;BME280;46462;32.608;-117.032;2023-05-16T10:39:24;99448.22;;;24.75;41.21
60646;BME280;46462;32.608;-117.032;2023-05-16T10:41:50;99453.03;;;24.74;41.42
60646;BME280;46462;32.608;-117.032;2023-05-16T10:44:20;99448.88;;;24.72;41.48
60646;BME280;46462;32.608;-117.032;2023-05-16T10:46:50;99445.19;;;24.74;41.25
60646;BME280;46462;32.608;-117.032;2023-05-16T10:49:22;99441.09;;;24.71;41.19
60646;BME280;46462;32.608;-117.032;2023-05-16T10:54:32;99433.93;;;24.68;41.22
60646;BME280;46462;32.608;-117.032;2023-05-16T10:56:55;99431.53;;;24.70;41.21
60646;BME280;46462;32.608;-117.032;2023-05-16T10:59:24;99425.23;;;24.67;41.29
60646;BME280;46462;32.608;-117.032;2023-05-16T11:01:55;99427.33;;;24.64;41.21
60646;BME280;46462;32.608;-117.032;2023-05-16T11:06:58;99417.67;;;24.58;41.33
60646;BME280;46462;32.608;-117.032;2023-05-16T11:09:27;99421.28;;;24.57;41.31
60646;BME280;46462;32.608;-117.032;2023-05-16T11:12:00;99416.93;;;24.57;41.40
60646;BME280;46462;32.608;-117.032;2023-05-16T11:14:34;99411.81;;;24.55;41.50
60646;BME280;46462;32.608;-117.032;2023-05-16T11:17:02;99409.44;;;24.57;41.19
60646;BME280;46462;32.608;-117.032;2023-05-16T11:19:32;99409.74;;;24.57;41.09
60646;BME280;46462;32.608;-117.032;2023-05-16T11:22:05;99412.11;;;24.61;41.06
60646;BME280;46462;32.608;-117.032;2023-05-16T11:24:32;99415.67;;;24.57;41.10
60646;BME280;46462;32.608;-117.032;2023-05-16T11:27:03;99412.03;;;24.60;41.00
60646;BME280;46462;32.608;-117.032;2023-05-16T11:29:34;99407.06;;;24.58;41.06
60646;BME280;46462;32.608;-117.032;2023-05-16T11:32:04;99409.11;;;24.57;41.00
60646;BME280;46462;32.608;-117.032;2023-05-16T11:34:36;99412.42;;;24.56;41.03
60646;BME280;46462;32.608;-117.032;2023-05-16T11:37:05;99421.30;;;24.52;41.12
60646;BME280;46462;32.608;-117.032;2023-05-16T11:39:35;99422.70;;;24.48;41.13
60646;BME280;46462;32.608;-117.032;2023-05-16T11:42:07;99418.62;;;24.54;40.99
60646;BME280;46462;32.608;-117.032;2023-05-16T11:44:37;99413.43;;;24.53;40.98
60646;BME280;46462;32.608;-117.032;2023-05-16T11:47:08;99412.36;;;24.53;40.97
60646;BME280;46462;32.608;-117.032;2023-05-16T11:49:38;99413.60;;;24.51;41.12
60646;BME280;46462;32.608;-117.032;2023-05-16T11:52:09;99414.79;;;24.50;40.94
60646;BME280;46462;32.608;-117.032;2023-05-16T11:54:40;99416.88;;;24.48;41.00
60646;BME280;46462;32.608;-117.032;2023-05-16T11:57:11;99417.02;;;24.49;41.01
60646;BME280;46462;32.608;-117.032;2023-05-16T11:59:41;99411.12;;;24.49;41.07
60646;BME280;46462;32.608;-117.032;2023-05-16T12:02:12;99416.17;;;24.50;40.89
60646;BME280;46462;32.608;-117.032;2023-05-16T12:04:45;99422.46;;;24.47;40.97
60646;BME280;46462;32.608;-117.032;2023-05-16T12:07:14;99423.90;;;24.46;40.92
60646;BME280;46462;32.608;-117.032;2023-05-16T12:09:51;99417.84;;;24.47;40.89
60646;BME280;46462;32.608;-117.032;2023-05-16T12:12:15;99425.20;;;24.45;40.94
60646;BME280;46462;32.608;-117.032;2023-05-16T12:14:46;99428.10;;;24.43;40.91
60646;BME280;46462;32.608;-117.032;2023-05-16T12:17:16;99426.58;;;24.45;40.88
60646;BME280;46462;32.608;-117.032;2023-05-16T12:19:47;99427.96;;;24.43;40.87
60646;BME280;46462;32.608;-117.032;2023-05-16T12:22:19;99433.55;;;24.40;41.06
60646;BME280;46462;32.608;-117.032;2023-05-16T12:24:49;99437.99;;;24.39;41.08
60646;BME280;46462;32.608;-117.032;2023-05-16T12:27:22;99440.25;;;24.40;40.97
60646;BME280;46462;32.608;-117.032;2023-05-16T12:29:50;99441.40;;;24.41;40.93
60646;BME280;46462;32.608;-117.032;2023-05-16T12:32:21;99441.82;;;24.45;40.81
60646;BME280;46462;32.608;-117.032;2023-05-16T12:34:52;99446.46;;;24.43;41.14
60646;BME280;46462;32.608;-117.032;2023-05-16T12:37:22;99449.10;;;24.48;40.75
60646;BME280;46462;32.608;-117.032;2023-05-16T12:39:58;99452.71;;;24.46;40.73
60646;BME280;46462;32.608;-117.032;2023-05-16T12:42:26;99451.01;;;24.47;40.71
60646;BME280;46462;32.608;-117.032;2023-05-16T12:44:55;99450.40;;;24.46;40.87
60646;BME280;46462;32.608;-117.032;2023-05-16T12:47:34;99454.05;;;24.43;40.85
60646;BME280;46462;32.608;-117.032;2023-05-16T12:49:56;99456.26;;;24.40;40.77
60646;BME280;46462;32.608;-117.032;2023-05-16T12:52:28;99458.74;;;24.41;40.71